Time;durP1;ratioP1;P1;durP2;ratioP2;P2;SDS_P1;SDS_P2;PMS_P1;PMS_P2;Temp;Humidity;BMP_temperature;BMP_pressure;BME280_temperature;BME280_humidity;BME280_pressure;Samples;Min_cycle;Max_cycle;Signal;HPM_P1;HPM_P2
2022/02/11 00:01:22;;;;;;;;;17.67;16.00;;;;;5.35;85.08;102225.50;5103550;27;45330;-76
2022/02/11 00:08:54;;;;;;;;;17.67;16.00;;;;;5.16;85.01;102228.53;5102943;27;45211;-76
2022/02/11 00:11:25;;;;;;;;;13.67;13.33;;;;;5.22;85.06;102249.22;5084569;27;45343;-76
2022/02/11 00:13:51;;;;;;;;;12.67;12.67;;;;;5.17;84.96;102243.38;5103252;27;45502;-76
2022/02/11 00:16:17;;;;;;;;;18.33;16.33;;;;;5.04;84.70;102230.19;5103162;27;45394;-76
2022/02/11 00:18:42;;;;;;;;;13.67;13.67;;;;;4.89;84.91;102226.75;5102892;27;45335;-76
2022/02/11 00:21:07;;;;;;;;;18.75;15.25;;;;;4.90;84.95;102239.84;5103306;27;45285;-76
2022/02/11 00:23:36;;;;;;;;;14.67;13.00;;;;;4.89;84.68;102253.09;5102884;27;45470;-76
2022/02/11 00:26:03;;;;;;;;;15.50;14.00;;;;;4.27;84.48;102163.94;5102828;27;47039;-76
2022/02/11 00:33:37;;;;;;;;;20.50;18.25;;;;;4.59;84.83;102244.44;5102655;27;45240;-76
2022/02/11 00:36:05;;;;;;;;;14.75;14.75;;;;;4.54;85.23;102249.16;5083948;27;48107;-76
2022/02/11 01:03:03;;;;;;;;;22.50;21.75;;;;;4.01;85.70;102257.66;5101211;27;45407;-76
2022/02/11 01:05:28;;;;;;;;;20.25;17.50;;;;;3.95;85.46;102252.78;5082596;27;45792;-76
2022/02/11 01:07:54;;;;;;;;;21.00;20.75;;;;;3.91;85.48;102262.63;5101010;27;45365;-76
2022/02/11 01:10:20;;;;;;;;;27.00;25.75;;;;;3.94;85.64;102272.97;5082342;27;45257;-76
2022/02/11 01:12:46;;;;;;;;;23.50;20.50;;;;;3.82;85.24;102255.28;5101202;27;45417;-76
2022/02/11 01:15:12;;;;;;;;;18.00;17.25;;;;;3.86;85.46;102262.06;5100842;27;45431;-75
2022/02/11 01:17:43;;;;;;;;;20.50;18.50;;;;;3.83;85.20;102270.97;5082438;27;47193;-76
2022/02/11 01:20:18;;;;;;;;;20.00;18.25;;;;;3.84;85.54;102285.84;5100907;27;45428;-76
2022/02/11 01:59:11;;;;;;;;;27.00;25.50;;;;;3.60;87.18;102304.75;5079893;28;46078;-76
2022/02/11 02:10:12;;;;;;;;;31.00;27.75;;;;;3.46;86.34;102309.94;5080416;28;45366;-76
2022/02/11 02:23:31;;;;;;;;;26.75;25.25;;;;;3.24;86.27;102321.72;5080495;28;45327;-76
2022/02/11 02:26:04;;;;;;;;;30.75;26.75;;;;;3.19;86.52;102324.59;5071911;28;45200;-76
2022/02/11 02:29:29;;;;;;;;;24.00;24.00;;;;;3.21;86.64;102333.25;5078579;28;45254;-76
2022/02/11 02:50:18;;;;;;;;;24.00;23.00;;;;;2.87;86.53;102321.97;5076620;27;45316;-76
2022/02/11 02:58:25;;;;;;;;;24.25;24.25;;;;;2.85;86.66;102321.22;5100554;27;45338;-76
2022/02/11 04:56:58;;;;;;;;;27.75;25.00;;;;;2.31;86.01;102485.88;5102434;27;45402;-76
2022/02/11 04:59:37;;;;;;;;;24.50;23.50;;;;;2.31;86.65;102487.63;5102385;27;45223;-77
2022/02/11 05:02:05;;;;;;;;;27.00;24.00;;;;;2.25;86.14;102491.44;5102348;27;45247;-76
2022/02/11 05:04:31;;;;;;;;;28.50;25.50;;;;;2.20;85.97;102478.53;5102300;27;45324;-77
2022/02/11 05:06:58;;;;;;;;;24.50;24.50;;;;;2.21;86.24;102482.84;5102433;27;45313;-77
2022/02/11 05:09:23;;;;;;;;;23.50;20.75;;;;;2.10;86.86;102475.50;5102005;27;45243;-77
2022/02/11 05:11:48;;;;;;;;;22.25;21.00;;;;;2.14;86.50;102487.56;5101877;27;46256;-76
2022/02/11 05:14:14;;;;;;;;;29.50;26.25;;;;;2.19;86.50;102502.22;5102201;27;45227;-77
2022/02/11 05:16:39;;;;;;;;;28.00;24.75;;;;;2.14;86.29;102497.19;5102431;27;45440;-76
2022/02/11 05:19:05;;;;;;;;;23.25;22.00;;;;;2.10;86.17;102498.28;5101893;27;45169;-76
2022/02/11 05:21:30;;;;;;;;;23.00;21.50;;;;;2.10;86.56;102506.97;5102259;27;45222;-77
2022/02/11 05:23:55;;;;;;;;;23.75;23.00;;;;;2.05;86.24;102500.25;5102051;27;45274;-78
2022/02/11 05:26:21;;;;;;;;;22.50;21.75;;;;;2.07;86.69;102503.66;5102174;27;45221;-78
2022/02/11 05:28:46;;;;;;;;;25.50;22.75;;;;;2.13;86.41;102516.50;5083822;27;45558;-76
2022/02/11 05:31:12;;;;;;;;;27.75;25.00;;;;;2.05;86.16;102505.50;5101541;27;46178;-76
2022/02/11 05:33:37;;;;;;;;;21.50;20.50;;;;;1.96;86.72;102502.41;5101091;27;45218;-76
2022/02/11 05:36:03;;;;;;;;;33.25;27.75;;;;;1.98;86.98;102510.22;5095320;27;45216;-77
2022/02/11 05:38:29;;;;;;;;;24.25;20.00;;;;;2.04;86.95;102536.16;5081096;28;45490;-76
2022/02/11 05:40:54;;;;;;;;;29.00;24.50;;;;;2.06;87.39;102542.16;5080827;28;46218;-77
2022/02/11 05:43:20;;;;;;;;;26.75;24.75;;;;;2.08;86.82;102548.19;5081254;28;45309;-76
2022/02/11 05:45:45;;;;;;;;;24.25;23.25;;;;;2.14;87.44;102555.78;5063067;28;45363;-77
2022/02/11 05:48:11;;;;;;;;;28.25;25.25;;;;;2.02;87.10;102538.00;5081123;28;45330;-76
2022/02/11 05:50:37;;;;;;;;;17.25;16.25;;;;;2.00;86.88;102540.69;5062658;28;47256;-76
2022/02/11 05:53:05;;;;;;;;;27.00;25.00;;;;;2.08;86.19;102553.44;5062837;28;46235;-76
2022/02/11 05:55:31;;;;;;;;;25.00;22.00;;;;;1.90;86.33;102531.56;5062439;28;45219;-76
2022/02/11 05:57:56;;;;;;;;;30.50;27.25;;;;;2.06;86.55;102570.19;5062801;28;45980;-76
2022/02/11 06:00:21;;;;;;;;;21.75;20.75;;;;;1.87;85.75;102544.81;5080047;28;46257;-76
2022/02/11 06:02:47;;;;;;;;;17.75;16.00;;;;;1.88;85.69;102547.34;5057292;28;45435;-76
2022/02/11 06:05:16;;;;;;;;;23.75;23.00;;;;;1.95;85.97;102568.88;5061084;28;45610;-75
2022/02/11 06:07:41;;;;;;;;;25.00;24.00;;;;;1.86;86.31;102559.69;5077455;27;45969;-77
2022/02/11 06:10:07;;;;;;;;;22.00;22.00;;;;;1.94;86.50;102582.09;5080542;28;45311;-77
2022/02/11 06:12:32;;;;;;;;;22.75;22.50;;;;;1.92;86.67;102599.66;5080599;28;45232;-76
2022/02/11 06:14:58;;;;;;;;;24.25;23.25;;;;;1.80;86.61;102578.34;5062621;28;45320;-77
2022/02/11 06:17:23;;;;;;;;;23.25;22.25;;;;;1.79;86.34;102578.41;5080707;28;45281;-75
2022/02/11 06:19:49;;;;;;;;;25.25;24.00;;;;;1.74;86.21;102565.53;5080584;28;45267;-77
2022/02/11 06:22:15;;;;;;;;;26.00;23.25;;;;;1.80;87.17;102577.50;5062445;28;45958;-78
2022/02/11 06:24:40;;;;;;;;;26.75;25.75;;;;;1.79;86.24;102584.50;5062140;28;45271;-77
2022/02/11 06:27:06;;;;;;;;;31.25;26.00;;;;;1.78;86.44;102593.28;5079873;28;45389;-77
2022/02/11 06:29:31;;;;;;;;;28.25;23.25;;;;;1.71;86.13;102584.84;5080570;28;45248;-75
2022/02/11 06:31:58;;;;;;;;;27.75;27.25;;;;;1.77;87.23;102597.69;5062283;28;45262;-77
2022/02/11 06:34:23;;;;;;;;;23.00;22.00;;;;;1.76;87.08;102595.13;5080487;28;45284;-78
2022/02/11 06:36:48;;;;;;;;;27.50;23.75;;;;;1.77;86.73;102597.69;5093153;27;45262;-77
2022/02/11 06:39:14;;;;;;;;;23.50;22.00;;;;;1.83;86.66;102606.19;5082120;27;48410;-76
2022/02/11 06:41:39;;;;;;;;;27.00;26.00;;;;;1.67;86.72;102585.91;5100900;27;45419;-77
2022/02/11 06:44:04;;;;;;;;;28.75;26.50;;;;;1.71;86.62;102610.22;5082082;27;45377;-75
2022/02/11 06:46:30;;;;;;;;;25.50;25.00;;;;;1.50;86.50;102589.31;5100737;27;45298;-77
2022/02/11 06:48:55;;;;;;;;;29.50;27.75;;;;;1.63;86.06;102621.91;5100766;27;45400;-76
2022/02/11 06:51:20;;;;;;;;;26.25;23.25;;;;;1.68;86.35;102624.34;5082225;27;45322;-76
2022/02/11 06:53:46;;;;;;;;;30.00;29.50;;;;;1.63;86.90;102635.03;5100725;27;45259;-76
2022/02/11 06:56:11;;;;;;;;;35.75;30.00;;;;;1.68;87.43;102639.19;5082162;27;46208;-75
2022/02/11 06:58:36;;;;;;;;;31.75;27.00;;;;;1.72;86.22;102656.50;5082015;27;46799;-75
2022/02/11 07:01:02;;;;;;;;;35.50;31.75;;;;;1.70;86.63;102659.19;5082229;27;45340;-76
2022/02/11 07:03:28;;;;;;;;;37.00;34.75;;;;;1.72;86.70;102661.72;5082188;27;45385;-76
2022/02/11 07:05:56;;;;;;;;;34.50;33.50;;;;;1.63;87.00;102652.50;5100513;27;45334;-75
2022/02/11 07:08:23;;;;;;;;;46.25;40.00;;;;;1.70;87.26;102667.03;5100134;27;46215;-75
2022/02/11 07:10:48;;;;;;;;;48.25;40.75;;;;;1.62;86.48;102650.81;5100104;27;45280;-75
2022/02/11 07:13:13;;;;;;;;;48.50;42.75;;;;;1.70;87.34;102674.91;5100748;27;45799;-76
2022/02/11 07:15:43;;;;;;;;;54.00;45.00;;;;;1.53;87.29;102652.09;5081888;27;45541;-76
2022/02/11 07:18:10;;;;;;;;;55.25;43.25;;;;;1.64;86.80;102670.78;5100105;27;46361;-76
2022/02/11 07:20:35;;;;;;;;;51.25;43.25;;;;;1.75;87.28;102677.34;5080778;27;45748;-75
2022/02/11 07:23:01;;;;;;;;;49.25;43.50;;;;;1.70;86.86;102671.44;5099624;27;45547;-77
2022/02/11 07:25:26;;;;;;;;;55.50;43.25;;;;;1.77;86.64;102686.00;5099795;27;45161;-76
2022/02/11 07:27:52;;;;;;;;;54.75;45.00;;;;;1.69;86.86;102675.84;5100093;27;45225;-75
2022/02/11 07:30:18;;;;;;;;;47.25;42.75;;;;;1.77;87.14;102681.59;5100251;27;45230;-76
2022/02/11 07:32:43;;;;;;;;;47.25;41.75;;;;;1.73;86.83;102687.03;5100280;27;45208;-76
2022/02/11 07:35:08;;;;;;;;;51.00;44.25;;;;;1.71;86.60;102688.88;5100176;27;45268;-76
2022/02/11 07:37:35;;;;;;;;;57.75;49.00;;;;;1.78;87.24;102708.66;5099306;27;46064;-75
2022/02/11 07:40:02;;;;;;;;;56.50;47.50;;;;;1.80;87.67;102721.72;5099220;27;45397;-75
2022/02/11 07:42:29;;;;;;;;;51.00;43.50;;;;;1.81;87.25;102724.25;5090906;27;45409;-75
2022/02/11 07:44:54;;;;;;;;;56.75;45.75;;;;;1.72;86.93;102720.28;5101866;27;47531;-74
2022/02/11 07:47:19;;;;;;;;;49.50;40.25;;;;;1.76;86.61;102716.59;5102027;27;48622;-74
2022/02/11 07:49:45;;;;;;;;;41.00;39.00;;;;;1.92;87.09;102749.16;5120583;27;45273;-76
2022/02/11 07:52:11;;;;;;;;;48.25;42.00;;;;;1.92;87.09;102754.41;5120639;27;45212;-74
2022/02/11 07:54:38;;;;;;;;;54.50;42.75;;;;;1.88;86.72;102749.28;5120281;27;45210;-74
2022/02/11 07:57:04;;;;;;;;;46.00;40.75;;;;;1.98;86.74;102772.50;5123625;27;45421;-75
2022/02/11 07:59:29;;;;;;;;;48.00;41.50;;;;;1.95;86.54;102756.91;5124096;27;45434;-74
2022/02/11 08:01:55;;;;;;;;;41.25;37.75;;;;;2.03;86.99;102760.03;5105762;27;45394;-75
2022/02/11 08:04:20;;;;;;;;;48.00;39.75;;;;;2.00;86.90;102762.78;5124030;27;45365;-75
2022/02/11 08:06:47;;;;;;;;;48.25;41.00;;;;;2.09;86.91;102772.88;5089857;27;47455;-74
2022/02/11 08:09:12;;;;;;;;;43.00;39.75;;;;;1.99;87.40;102766.34;5102269;27;45465;-74
2022/02/11 08:11:37;;;;;;;;;55.25;45.75;;;;;2.07;86.72;102764.25;5084229;27;45442;-73
2022/02/11 08:14:03;;;;;;;;;51.25;40.75;;;;;2.16;86.63;102780.47;5104732;27;45405;-74
2022/02/11 08:16:28;;;;;;;;;61.00;51.00;;;;;2.06;86.87;102765.13;5103622;27;45279;-74
2022/02/11 08:18:54;;;;;;;;;60.75;50.25;;;;;2.07;86.68;102764.25;5102988;27;45229;-74
2022/02/11 08:21:21;;;;;;;;;69.00;55.75;;;;;2.17;86.92;102779.53;5102984;27;45267;-74
2022/02/11 08:23:47;;;;;;;;;59.50;49.00;;;;;2.17;87.73;102776.91;5101580;27;45357;-74
2022/02/11 08:26:12;;;;;;;;;59.00;47.75;;;;;2.11;87.03;102771.03;5102681;27;45228;-74
2022/02/11 08:28:37;;;;;;;;;42.00;38.75;;;;;2.28;86.99;102795.69;5084376;27;45214;-74
2022/02/11 08:31:03;;;;;;;;;40.25;37.00;;;;;2.26;87.40;102787.88;5101422;27;45370;-73
2022/02/11 08:33:29;;;;;;;;;37.50;34.25;;;;;2.24;87.06;102788.84;5100351;27;45461;-74
2022/02/11 08:35:56;;;;;;;;;40.25;37.00;;;;;2.36;87.81;102798.81;5100576;27;45896;-74
2022/02/11 08:38:23;;;;;;;;;41.50;37.50;;;;;2.30;87.84;102788.56;5101301;27;45419;-74
2022/02/11 08:40:49;;;;;;;;;40.50;36.50;;;;;2.49;87.71;102820.09;5082765;27;45381;-74
2022/02/11 08:43:16;;;;;;;;;41.00;35.25;;;;;2.47;87.94;102818.47;5101280;27;45323;-74
2022/02/11 08:45:41;;;;;;;;;29.25;29.00;;;;;2.51;87.05;102815.63;5101837;27;46244;-74
2022/02/11 08:48:12;;;;;;;;;39.50;37.00;;;;;2.64;87.28;102826.41;5102581;27;45315;-74
2022/02/11 08:50:38;;;;;;;;;38.25;34.25;;;;;2.69;87.90;102828.00;5102863;27;45360;-74
2022/02/11 08:53:06;;;;;;;;;32.25;32.00;;;;;2.73;87.98;102835.63;5102288;27;45312;-74
2022/02/11 08:55:32;;;;;;;;;34.25;32.75;;;;;2.69;87.70;102814.88;5102341;27;46146;-74
2022/02/11 08:58:01;;;;;;;;;32.50;32.25;;;;;2.84;87.58;102837.78;5102539;27;45179;-74
2022/02/11 09:00:27;;;;;;;;;35.00;31.25;;;;;2.90;87.97;102844.50;5102614;27;45429;-74
2022/02/11 09:02:57;;;;;;;;;33.00;31.50;;;;;2.86;86.87;102833.31;5083859;27;47160;-74
2022/02/11 09:05:24;;;;;;;;;32.00;28.75;;;;;2.90;87.82;102836.63;5102139;27;46201;-74
2022/02/11 09:07:57;;;;;;;;;35.75;33.50;;;;;3.04;87.71;102862.28;5101964;27;45365;-74
2022/02/11 09:10:26;;;;;;;;;38.00;35.75;;;;;3.09;87.97;102859.44;5083718;27;45317;-75
2022/02/11 09:12:51;;;;;;;;;43.25;37.25;;;;;3.09;87.53;102852.41;5083454;27;45480;-74
2022/02/11 09:15:17;;;;;;;;;39.75;36.75;;;;;3.08;87.42;102839.34;5100597;27;46287;-75
2022/02/11 09:17:42;;;;;;;;;39.75;35.75;;;;;3.25;87.86;102867.44;5103529;27;45396;-75
2022/02/11 09:20:08;;;;;;;;;43.00;39.00;;;;;3.22;87.76;102857.91;5100919;27;45337;-74
2022/02/11 09:22:33;;;;;;;;;34.00;33.00;;;;;3.23;87.92;102846.47;5102262;27;45412;-75
2022/02/11 09:24:59;;;;;;;;;43.50;35.50;;;;;3.37;87.40;102865.97;5101624;27;45263;-75
2022/02/11 09:27:24;;;;;;;;;36.25;33.25;;;;;3.34;87.78;102859.09;5101836;27;45365;-75
2022/02/11 09:29:50;;;;;;;;;36.25;34.50;;;;;3.22;87.91;102825.53;5083797;27;45443;-75
2022/02/11 09:32:16;;;;;;;;;36.25;32.75;;;;;3.52;87.97;102874.91;5080295;27;47321;-76
2022/02/11 09:34:41;;;;;;;;;36.50;32.75;;;;;3.47;87.52;102866.41;5097677;27;45679;-75
2022/02/11 09:37:07;;;;;;;;;34.00;32.00;;;;;3.51;88.01;102866.16;5100901;27;45461;-73
2022/02/11 09:39:32;;;;;;;;;34.75;32.75;;;;;3.53;88.00;102869.56;5101059;27;45286;-75
2022/02/11 09:41:58;;;;;;;;;34.50;32.25;;;;;3.69;87.92;102889.00;5079678;27;45945;-74
2022/02/11 09:44:27;;;;;;;;;33.50;33.25;;;;;3.60;87.70;102862.25;5105379;27;46172;-76
2022/02/11 09:46:54;;;;;;;;;29.25;29.25;;;;;3.75;88.27;102875.56;5122357;27;45331;-76
2022/02/11 09:49:19;;;;;;;;;31.00;29.50;;;;;3.78;87.78;102875.41;5102073;27;45636;-75
2022/02/11 09:51:47;;;;;;;;;36.75;35.50;;;;;3.96;87.75;102902.59;5100615;27;45619;-74
2022/02/11 09:54:17;;;;;;;;;31.50;29.00;;;;;4.02;87.88;102901.41;5113541;27;46060;-75
2022/02/11 09:56:43;;;;;;;;;32.25;28.50;;;;;4.03;87.88;102901.34;5122180;27;45313;-75
2022/02/11 09:59:08;;;;;;;;;36.50;33.50;;;;;4.09;87.87;102891.41;5109556;27;45229;-75
2022/02/11 10:01:35;;;;;;;;;32.25;31.50;;;;;4.31;87.83;102912.22;5100783;27;45536;-75
2022/02/11 10:04:13;;;;;;;;;32.50;31.75;;;;;4.29;87.90;102900.94;5100200;27;45940;-75
2022/02/11 10:06:39;;;;;;;;;36.25;33.75;;;;;4.37;87.95;102911.06;5100181;27;45391;-75
2022/02/11 10:09:05;;;;;;;;;39.00;35.25;;;;;4.52;87.64;102922.59;5088734;27;45346;-75
2022/02/11 10:11:32;;;;;;;;;36.25;32.00;;;;;4.58;87.91;102922.25;5098956;27;45615;-75
2022/02/11 10:14:16;;;;;;;;;34.25;33.50;;;;;4.50;87.37;102888.44;5101016;27;46158;-76
2022/02/11 10:16:58;;;;;;;;;34.00;33.25;;;;;4.70;87.83;102902.31;5101276;27;45346;-75
2022/02/11 10:19:38;;;;;;;;;32.75;29.00;;;;;4.86;87.06;102927.84;5100009;27;45401;-76
2022/02/11 10:22:08;;;;;;;;;29.50;27.00;;;;;4.92;86.92;102923.13;5082636;27;46601;-76
2022/02/11 10:24:34;;;;;;;;;24.25;23.50;;;;;4.93;86.79;102916.03;5100647;27;45398;-76
2022/02/11 10:26:59;;;;;;;;;30.75;28.75;;;;;5.08;87.29;102932.81;5100670;27;45388;-75
2022/02/11 10:29:24;;;;;;;;;31.25;24.50;;;;;5.09;87.50;102913.41;5082502;27;45442;-75
2022/02/11 10:31:50;;;;;;;;;25.50;22.75;;;;;5.09;87.29;102910.78;5100854;27;45536;-75
2022/02/11 10:34:18;;;;;;;;;28.00;26.75;;;;;5.17;87.56;102916.50;5082483;27;48499;-75
2022/02/11 10:36:48;;;;;;;;;26.00;24.00;;;;;5.38;87.46;102933.81;5100793;27;45396;-76
2022/02/11 10:39:14;;;;;;;;;18.00;18.00;;;;;5.50;86.94;102935.78;5100718;27;45371;-75
2022/02/11 10:41:49;;;;;;;;;23.25;21.00;;;;;5.58;86.90;102935.34;5082353;27;45970;-75
2022/02/11 10:44:17;;;;;;;;;23.00;17.67;;;;;5.60;86.60;102928.19;5100939;27;45786;-76
2022/02/11 10:46:47;;;;;;;;;15.75;14.00;;;;;5.64;86.78;102928.88;5082476;27;45839;-75
2022/02/11 10:49:14;;;;;;;;;19.75;19.00;;;;;5.77;86.01;102934.28;5100850;27;45271;-76
2022/02/11 10:51:44;;;;;;;;;13.33;13.33;;;;;5.94;85.99;102957.09;5082093;27;46561;-75
2022/02/11 10:54:30;;;;;;;;;11.00;11.00;;;;;5.94;85.42;102935.97;5100317;27;46239;-76
2022/02/11 10:56:58;;;;;;;;;9.00;7.33;;;;;5.97;84.83;102929.66;5100796;27;45271;-77
2022/02/11 10:59:26;;;;;;;;;5.00;5.00;;;;;6.20;85.29;102949.47;5099769;27;45624;-76
2022/02/11 11:01:55;;;;;;;;;11.67;9.67;;;;;6.39;84.84;102959.78;5100581;27;45332;-75
2022/02/11 11:04:20;;;;;;;;;12.67;11.00;;;;;6.46;84.35;102933.00;5100385;27;46155;-75
2022/02/11 11:06:47;;;;;;;;;11.00;9.67;;;;;6.76;84.33;102959.34;5100451;27;45146;-75
2022/02/11 11:09:15;;;;;;;;;12.67;9.33;;;;;6.91;84.78;102965.47;5081966;27;45374;-75
2022/02/11 11:11:44;;;;;;;;;13.67;11.33;;;;;6.93;84.12;102960.94;5100253;27;45317;-75
2022/02/11 11:14:16;;;;;;;;;13.33;9.00;;;;;7.00;84.03;102963.22;5100436;27;45165;-75
2022/02/11 11:16:43;;;;;;;;;14.00;12.00;;;;;7.11;82.91;102968.69;5100266;27;45344;-77
2022/02/11 11:19:09;;;;;;;;;7.00;7.00;;;;;7.19;81.19;102970.84;5100373;27;45331;-74
2022/02/11 11:21:43;;;;;;;;;11.67;9.33;;;;;7.26;82.22;102966.00;5100137;27;45505;-77
2022/02/11 11:24:09;;;;;;;;;4.00;3.67;;;;;7.42;81.50;102965.88;5099943;27;46243;-76
2022/02/11 11:26:45;;;;;;;;;11.00;11.00;;;;;7.62;82.00;102966.38;5081776;27;45963;-76
2022/02/11 11:29:15;;;;;;;;;10.33;7.67;;;;;7.71;81.77;102949.91;5081268;27;45449;-75
2022/02/11 11:31:58;;;;;;;;;8.00;7.00;;;;;7.87;80.79;102939.13;5124404;27;45457;-76
2022/02/11 11:34:33;;;;;;;;;14.67;9.67;;;;;7.89;80.12;102937.25;5124453;27;46091;-75
2022/02/11 11:37:07;;;;;;;;;11.67;10.33;;;;;8.02;79.92;102936.44;5124256;27;45405;-76
2022/02/11 11:39:34;;;;;;;;;8.00;8.00;;;;;8.11;79.97;102946.38;5105735;27;45246;-75
2022/02/11 11:41:59;;;;;;;;;9.00;9.00;;;;;8.27;80.65;102958.63;5105741;27;47113;-75
2022/02/11 11:44:25;;;;;;;;;9.00;7.67;;;;;8.27;79.18;102959.47;5124264;27;45363;-75
2022/02/11 11:46:59;;;;;;;;;8.00;7.33;;;;;8.20;79.32;102961.66;5124479;27;45271;-75
2022/02/11 11:49:26;;;;;;;;;8.00;6.67;;;;;7.92;79.22;102934.41;5124584;27;45380;-75
2022/02/11 11:51:54;;;;;;;;;8.00;7.00;;;;;7.99;78.60;102952.53;5105674;27;46797;-75
2022/02/11 11:54:23;;;;;;;;;8.00;7.67;;;;;8.11;79.23;102964.09;5123767;27;45244;-76
2022/02/11 11:57:09;;;;;;;;;7.00;6.00;;;;;8.28;80.22;102958.50;5124266;27;45429;-76
2022/02/11 11:59:41;;;;;;;;;22.00;17.33;;;;;8.45;80.10;102962.63;5124192;27;45347;-75
2022/02/11 12:02:10;;;;;;;;;13.00;13.00;;;;;8.46;78.55;102939.66;5108135;27;46309;-80
2022/02/11 12:04:41;;;;;;;;;10.67;7.33;;;;;8.68;78.80;102962.88;5126068;27;45348;-79
2022/02/11 12:07:23;;;;;;;;;10.33;8.33;;;;;8.68;78.09;102960.25;5087505;27;45588;-80
2022/02/11 12:09:51;;;;;;;;;6.00;6.00;;;;;8.60;77.09;102944.03;5084348;27;45327;-78
2022/02/11 12:12:26;;;;;;;;;6.00;6.00;;;;;8.54;76.57;102952.41;5103388;27;45227;-80
2022/02/11 12:14:54;;;;;;;;;6.67;6.67;;;;;8.38;76.52;102926.09;5085503;27;48047;-79
2022/02/11 12:17:21;;;;;;;;;6.33;6.33;;;;;8.30;74.07;102935.41;5083760;27;45452;-80
2022/02/11 12:19:48;;;;;;;;;6.33;5.00;;;;;8.32;73.80;102948.56;5084273;27;45305;-80
2022/02/11 12:22:16;;;;;;;;;7.67;7.67;;;;;8.05;75.30;102917.69;5102399;27;45392;-79
2022/02/11 12:27:34;;;;;;;;;6.67;6.67;;;;;7.94;75.62;102891.94;5103693;27;45340;-82
2022/02/11 12:30:04;;;;;;;;;6.67;6.67;;;;;7.85;75.27;102871.38;5103314;27;45337;-82
2022/02/11 12:32:47;;;;;;;;;5.33;4.33;;;;;8.31;75.42;102930.94;5102823;27;45425;-78
2022/02/11 12:35:21;;;;;;;;;8.00;7.67;;;;;8.27;75.77;102911.78;5090582;27;47409;-81
2022/02/11 12:37:47;;;;;;;;;7.00;6.00;;;;;8.50;76.03;102927.03;5103759;27;45304;-80
2022/02/11 12:40:27;;;;;;;;;6.33;6.00;;;;;8.72;75.98;102942.31;5104610;27;45244;-82
2022/02/11 12:43:02;;;;;;;;;8.67;8.00;;;;;8.44;75.87;102872.66;5083662;27;46037;-78
2022/02/11 12:45:32;;;;;;;;;5.33;5.33;;;;;8.91;74.77;102941.88;5102846;27;45283;-80
2022/02/11 12:47:57;;;;;;;;;5.00;5.00;;;;;8.90;74.27;102926.91;5101380;27;45321;-80
2022/02/11 12:50:29;;;;;;;;;5.33;5.33;;;;;8.83;73.45;102917.72;5084474;27;45264;-79
2022/02/11 12:53:04;;;;;;;;;5.33;5.00;;;;;8.87;73.30;102923.63;5102510;27;45241;-80
2022/02/11 12:55:32;;;;;;;;;7.33;5.67;;;;;8.77;73.16;102907.53;5102451;27;46267;-79
2022/02/11 12:58:01;;;;;;;;;26.67;21.00;;;;;8.90;74.38;102923.41;5084065;27;45448;-79
2022/02/11 13:00:28;;;;;;;;;60.25;46.50;;;;;8.91;74.59;102920.66;5102615;27;45333;-79
2022/02/11 13:02:58;;;;;;;;;47.25;35.75;;;;;8.79;74.40;102908.25;5102319;27;45557;-79
2022/02/11 13:05:26;;;;;;;;;31.00;25.00;;;;;8.75;75.32;102881.13;5084071;27;48330;-80
2022/02/11 13:08:00;;;;;;;;;32.33;29.67;;;;;9.00;74.98;102912.97;5083751;27;46225;-78
2022/02/11 13:10:25;;;;;;;;;27.33;19.33;;;;;9.05;74.50;102922.31;5083790;27;45441;-79
2022/02/11 13:12:55;;;;;;;;;22.67;20.00;;;;;8.92;75.32;102893.16;5102152;27;45448;-80
2022/02/11 13:15:27;;;;;;;;;4.67;4.67;;;;;8.98;73.66;102899.00;5102295;27;45268;-84
2022/02/11 13:17:53;;;;;;;;;6.00;6.00;;;;;9.10;73.65;102887.50;5102113;27;45400;-82
2022/02/11 13:20:22;;;;;;;;;6.33;4.00;;;;;8.86;71.95;102837.09;5102234;27;45251;-82
2022/02/11 13:22:50;;;;;;;;;3.67;3.67;;;;;9.01;73.24;102835.13;5101926;27;45212;-79
2022/02/11 13:25:18;;;;;;;;;5.00;5.00;;;;;9.47;73.46;102915.78;5101832;27;46659;-78
2022/02/11 13:27:49;;;;;;;;;5.67;5.67;;;;;9.45;71.34;102915.06;5083615;27;45411;-78
2022/02/11 13:30:21;;;;;;;;;14.00;11.00;;;;;9.41;71.87;102906.50;5102163;27;45342;-80
2022/02/11 13:32:47;;;;;;;;;20.33;16.33;;;;;9.56;72.45;102901.00;5101825;27;45366;-80
2022/02/11 13:35:12;;;;;;;;;28.00;27.67;;;;;9.80;72.58;102916.91;5101733;27;46249;-79
2022/02/11 13:37:46;;;;;;;;;10.67;9.33;;;;;10.05;72.12;102925.66;5101857;27;45163;-80
2022/02/11 13:40:20;;;;;;;;;8.00;8.00;;;;;10.15;71.86;102915.16;5083796;27;45484;-78
2022/02/11 13:42:56;;;;;;;;;42.33;30.67;;;;;10.54;72.00;102922.84;5101756;27;45221;-79
2022/02/11 13:45:22;;;;;;;;;10.67;10.67;;;;;10.68;70.64;102932.41;5101660;27;45270;-79
2022/02/11 13:48:02;;;;;;;;;7.67;7.67;;;;;10.73;69.30;102911.63;5101855;27;45287;-79
2022/02/11 13:50:29;;;;;;;;;42.50;34.50;;;;;10.67;69.74;102916.56;5083368;27;45335;-79
2022/02/11 13:53:01;;;;;;;;;51.25;43.00;;;;;10.65;70.09;102932.66;5100106;27;45235;-78
2022/02/11 13:55:27;;;;;;;;;51.75;39.50;;;;;10.51;69.66;102930.25;5082810;27;47115;-79
2022/02/11 13:57:52;;;;;;;;;24.33;20.67;;;;;10.19;69.38;102907.81;5101735;27;45437;-78
2022/02/11 14:00:36;;;;;;;;;20.00;20.00;;;;;10.20;69.59;102920.13;5101707;27;45321;-79
2022/02/11 14:03:02;;;;;;;;;51.25;40.50;;;;;10.59;70.67;102891.44;5083036;27;46647;-79
2022/02/11 14:05:29;;;;;;;;;16.67;16.67;;;;;12.37;70.18;102921.44;5082987;27;48137;-80
2022/02/11 14:07:56;;;;;;;;;8.67;8.00;;;;;13.94;67.70;102929.84;5083605;27;45261;-81
2022/02/11 14:10:21;;;;;;;;;6.33;5.00;;;;;13.76;63.58;102925.25;5102087;27;45275;-80
2022/02/11 14:12:47;;;;;;;;;5.33;5.33;;;;;13.05;63.37;102871.09;5101717;27;45314;-81
2022/02/11 14:15:12;;;;;;;;;4.33;4.33;;;;;13.94;64.81;102906.66;5101471;27;45294;-78
2022/02/11 14:17:40;;;;;;;;;6.00;4.00;;;;;14.13;63.38;102892.41;5082842;27;45273;-78
2022/02/11 14:20:06;;;;;;;;;4.67;4.00;;;;;14.51;63.09;102913.81;5081036;27;45321;-81
2022/02/11 14:22:32;;;;;;;;;6.00;5.00;;;;;14.81;62.52;102880.75;5072999;27;46336;-84
2022/02/11 14:25:00;;;;;;;;;4.67;4.67;;;;;14.54;60.87;102877.88;5096468;27;46406;-85
2022/02/11 14:27:26;;;;;;;;;6.00;6.00;;;;;14.62;61.79;102879.81;5078119;27;45457;-84
2022/02/11 14:29:51;;;;;;;;;32.00;23.67;;;;;14.83;59.61;102842.13;5099695;27;45391;-82
2022/02/11 14:32:17;;;;;;;;;41.00;33.67;;;;;15.36;58.89;102876.25;5116193;27;45553;-80
2022/02/11 14:34:42;;;;;;;;;67.75;52.00;;;;;15.43;59.62;102871.13;5121444;27;45258;-82
2022/02/11 14:37:09;;;;;;;;;39.33;33.00;;;;;15.58;59.72;102916.97;5114052;27;45267;-81
2022/02/11 14:39:34;;;;;;;;;9.33;7.00;;;;;15.81;59.56;102892.34;5121398;27;45488;-81
2022/02/11 14:42:02;;;;;;;;;42.33;34.00;;;;;16.03;57.91;102894.56;5121458;27;45337;-78
2022/02/11 14:44:30;;;;;;;;;35.00;31.33;;;;;15.72;57.70;102872.69;5116163;27;45368;-80
2022/02/11 14:46:58;;;;;;;;;8.33;8.33;;;;;15.15;56.58;102853.31;5101235;27;45233;-83
2022/02/11 14:49:25;;;;;;;;;4.50;3.50;;;;;15.09;57.66;102891.41;5100932;27;45319;-83
2022/02/11 14:51:53;;;;;;;;;14.00;14.00;;;;;15.00;57.37;102893.97;5100545;27;45327;-84
2022/02/11 14:54:19;;;;;;;;;19.67;16.00;;;;;15.29;57.69;102885.91;5099515;27;45482;-81
2022/02/11 14:56:47;;;;;;;;;12.00;11.00;;;;;15.83;59.19;102903.78;5093393;27;45172;-80
2022/02/11 14:59:14;;;;;;;;;10.00;7.33;;;;;16.03;56.49;102850.78;5121206;27;45287;-79
2022/02/11 15:01:43;;;;;;;;;5.00;5.00;;;;;16.25;56.88;102861.97;5121119;27;45432;-81
2022/02/11 15:04:09;;;;;;;;;8.33;8.33;;;;;15.95;55.39;102886.41;5120818;27;46031;-81
2022/02/11 15:06:35;;;;;;;;;6.00;6.00;;;;;15.18;54.92;102871.75;5106602;27;45163;-80
2022/02/11 15:09:02;;;;;;;;;5.67;5.00;;;;;14.36;55.30;102859.09;5099703;27;45341;-81
2022/02/11 15:11:28;;;;;;;;;7.00;5.67;;;;;13.91;56.92;102892.75;5099189;27;46071;-81
2022/02/11 15:13:54;;;;;;;;;4.00;4.00;;;;;13.45;57.12;102912.88;5082145;27;48430;-80
2022/02/11 15:16:20;;;;;;;;;4.67;4.67;;;;;12.90;56.99;102902.66;5084442;27;45649;-79